sensor_id;sensor_type;location;lat;lon;timestamp;P1;durP1;ratioP1;P2;durP2;ratioP2
19587;SDS011;9940;47.252;8.696;2023-02-11T00:00:37;12.30;;;5.05;;
19587;SDS011;9940;47.252;8.696;2023-02-11T00:03:04;14.23;;;4.97;;
19587;SDS011;9940;47.252;8.696;2023-02-11T00:05:29;10.57;;;4.70;;
19587;SDS011;9940;47.252;8.696;2023-02-11T00:07:58;14.15;;;4.95;;
19587;SDS011;9940;47.252;8.696;2023-02-11T00:10:28;13.48;;;4.95;;
19587;SDS011;9940;47.252;8.696;2023-02-11T00:12:56;15.25;;;5.20;;
19587;SDS011;9940;47.252;8.696;2023-02-11T00:15:26;14.95;;;4.63;;
19587;SDS011;9940;47.252;8.696;2023-02-11T00:17:52;10.80;;;4.55;;
19587;SDS011;9940;47.252;8.696;2023-02-11T00:20:18;12.38;;;4.35;;
19587;SDS011;9940;47.252;8.696;2023-02-11T00:22:45;13.10;;;4.57;;
19587;SDS011;9940;47.252;8.696;2023-02-11T00:25:13;11.13;;;4.38;;
19587;SDS011;9940;47.252;8.696;2023-02-11T00:27:44;13.18;;;4.50;;
19587;SDS011;9940;47.252;8.696;2023-02-11T00:30:12;11.63;;;4.55;;
19587;SDS011;9940;47.252;8.696;2023-02-11T00:32:40;12.50;;;4.43;;
19587;SDS011;9940;47.252;8.696;2023-02-11T00:35:06;11.23;;;4.70;;
19587;SDS011;9940;47.252;8.696;2023-02-11T00:37:37;12.30;;;4.68;;
19587;SDS011;9940;47.252;8.696;2023-02-11T00:40:03;13.15;;;4.93;;
19587;SDS011;9940;47.252;8.696;2023-02-11T00:42:29;9.93;;;4.22;;
19587;SDS011;9940;47.252;8.696;2023-02-11T00:45:00;11.18;;;4.72;;
19587;SDS011;9940;47.252;8.696;2023-02-11T00:47:28;12.93;;;4.95;;
19587;SDS011;9940;47.252;8.696;2023-02-11T00:49:54;13.88;;;5.05;;
19587;SDS011;9940;47.252;8.696;2023-02-11T00:52:22;14.85;;;5.05;;
19587;SDS011;9940;47.252;8.696;2023-02-11T00:54:47;13.82;;;5.10;;
19587;SDS011;9940;47.252;8.696;2023-02-11T00:57:13;14.68;;;5.00;;
19587;SDS011;9940;47.252;8.696;2023-02-11T00:59:39;11.25;;;4.65;;
19587;SDS011;9940;47.252;8.696;2023-02-11T01:02:05;12.18;;;4.65;;
19587;SDS011;9940;47.252;8.696;2023-02-11T01:04:33;10.95;;;4.93;;
19587;SDS011;9940;47.252;8.696;2023-02-11T01:07:01;13.75;;;4.88;;
19587;SDS011;9940;47.252;8.696;2023-02-11T01:09:26;13.70;;;4.75;;
19587;SDS011;9940;47.252;8.696;2023-02-11T01:11:52;18.42;;;4.78;;
19587;SDS011;9940;47.252;8.696;2023-02-11T01:14:20;10.35;;;4.35;;
19587;SDS011;9940;47.252;8.696;2023-02-11T01:16:47;12.77;;;5.15;;
19587;SDS011;9940;47.252;8.696;2023-02-11T01:19:16;13.80;;;4.40;;
19587;SDS011;9940;47.252;8.696;2023-02-11T01:21:41;10.40;;;4.32;;
19587;SDS011;9940;47.252;8.696;2023-02-11T01:24:07;13.68;;;4.88;;
19587;SDS011;9940;47.252;8.696;2023-02-11T01:26:33;12.27;;;5.05;;
19587;SDS011;9940;47.252;8.696;2023-02-11T01:28:58;11.57;;;4.55;;
19587;SDS011;9940;47.252;8.696;2023-02-11T01:31:25;10.98;;;4.40;;
19587;SDS011;9940;47.252;8.696;2023-02-11T01:33:51;12.15;;;4.88;;
19587;SDS011;9940;47.252;8.696;2023-02-11T01:36:19;11.32;;;4.38;;
19587;SDS011;9940;47.252;8.696;2023-02-11T01:38:44;12.27;;;4.65;;
19587;SDS011;9940;47.252;8.696;2023-02-11T01:41:11;10.25;;;4.65;;
19587;SDS011;9940;47.252;8.696;2023-02-11T01:43:45;13.90;;;4.90;;
19587;SDS011;9940;47.252;8.696;2023-02-11T01:48:55;10.25;;;4.47;;
19587;SDS011;9940;47.252;8.696;2023-02-11T01:51:32;10.18;;;4.80;;
19587;SDS011;9940;47.252;8.696;2023-02-11T01:54:05;15.57;;;5.28;;
19587;SDS011;9940;47.252;8.696;2023-02-11T01:56:51;11.40;;;4.47;;
19587;SDS011;9940;47.252;8.696;2023-02-11T02:00:13;11.27;;;4.65;;
19587;SDS011;9940;47.252;8.696;2023-02-11T02:03:05;11.52;;;4.25;;
19587;SDS011;9940;47.252;8.696;2023-02-11T02:08:37;13.88;;;5.00;;
19587;SDS011;9940;47.252;8.696;2023-02-11T02:11:13;11.38;;;4.25;;
19587;SDS011;9940;47.252;8.696;2023-02-11T02:13:41;13.48;;;4.60;;
19587;SDS011;9940;47.252;8.696;2023-02-11T02:16:09;9.98;;;4.43;;
19587;SDS011;9940;47.252;8.696;2023-02-11T02:40:44;12.50;;;4.28;;
19587;SDS011;9940;47.252;8.696;2023-02-11T02:43:16;12.43;;;4.53;;
19587;SDS011;9940;47.252;8.696;2023-02-11T02:45:46;13.52;;;4.75;;
19587;SDS011;9940;47.252;8.696;2023-02-11T02:48:29;12.55;;;4.50;;
19587;SDS011;9940;47.252;8.696;2023-02-11T02:56:35;13.45;;;4.97;;
19587;SDS011;9940;47.252;8.696;2023-02-11T03:04:36;14.25;;;4.93;;
19587;SDS011;9940;47.252;8.696;2023-02-11T03:07:42;13.75;;;4.68;;
19587;SDS011;9940;47.252;8.696;2023-02-11T03:10:24;15.32;;;5.18;;
19587;SDS011;9940;47.252;8.696;2023-02-11T03:12:59;15.00;;;5.20;;
19587;SDS011;9940;47.252;8.696;2023-02-11T03:15:29;15.60;;;4.85;;
19587;SDS011;9940;47.252;8.696;2023-02-11T03:17:59;13.70;;;4.55;;
19587;SDS011;9940;47.252;8.696;2023-02-11T03:20:25;12.35;;;4.60;;
19587;SDS011;9940;47.252;8.696;2023-02-11T03:25:47;13.10;;;4.85;;
19587;SDS011;9940;47.252;8.696;2023-02-11T03:28:26;16.00;;;5.25;;
19587;SDS011;9940;47.252;8.696;2023-02-11T03:33:51;14.10;;;4.88;;
19587;SDS011;9940;47.252;8.696;2023-02-11T03:37:05;12.57;;;5.28;;
19587;SDS011;9940;47.252;8.696;2023-02-11T03:39:38;14.38;;;5.30;;
19587;SDS011;9940;47.252;8.696;2023-02-11T03:42:12;10.27;;;4.78;;
19587;SDS011;9940;47.252;8.696;2023-02-11T03:44:42;13.27;;;5.18;;
19587;SDS011;9940;47.252;8.696;2023-02-11T03:47:17;13.65;;;4.85;;
19587;SDS011;9940;47.252;8.696;2023-02-11T03:49:47;15.05;;;4.82;;
19587;SDS011;9940;47.252;8.696;2023-02-11T03:52:15;13.68;;;4.95;;
19587;SDS011;9940;47.252;8.696;2023-02-11T03:54:42;15.60;;;5.22;;
19587;SDS011;9940;47.252;8.696;2023-02-11T03:57:16;10.60;;;4.30;;
19587;SDS011;9940;47.252;8.696;2023-02-11T03:59:51;13.55;;;4.80;;
19587;SDS011;9940;47.252;8.696;2023-02-11T04:02:22;12.95;;;4.80;;
19587;SDS011;9940;47.252;8.696;2023-02-11T04:04:57;9.88;;;4.68;;
19587;SDS011;9940;47.252;8.696;2023-02-11T04:07:24;14.88;;;4.75;;
19587;SDS011;9940;47.252;8.696;2023-02-11T04:09:54;14.23;;;4.32;;
19587;SDS011;9940;47.252;8.696;2023-02-11T04:12:19;12.18;;;4.68;;
19587;SDS011;9940;47.252;8.696;2023-02-11T04:14:45;17.17;;;4.60;;
19587;SDS011;9940;47.252;8.696;2023-02-11T04:17:11;12.20;;;4.60;;
19587;SDS011;9940;47.252;8.696;2023-02-11T04:19:37;12.65;;;4.68;;
19587;SDS011;9940;47.252;8.696;2023-02-11T04:22:03;13.90;;;4.85;;
19587;SDS011;9940;47.252;8.696;2023-02-11T04:24:31;11.00;;;4.50;;
19587;SDS011;9940;47.252;8.696;2023-02-11T04:26:57;10.73;;;4.28;;
19587;SDS011;9940;47.252;8.696;2023-02-11T04:29:25;12.15;;;4.55;;
19587;SDS011;9940;47.252;8.696;2023-02-11T04:31:52;12.48;;;4.70;;
19587;SDS011;9940;47.252;8.696;2023-02-11T04:34:18;11.32;;;4.95;;
19587;SDS011;9940;47.252;8.696;2023-02-11T04:36:49;10.77;;;4.75;;
19587;SDS011;9940;47.252;8.696;2023-02-11T04:39:15;11.68;;;4.90;;
19587;SDS011;9940;47.252;8.696;2023-02-11T04:41:43;11.35;;;4.60;;
19587;SDS011;9940;47.252;8.696;2023-02-11T04:44:11;11.63;;;4.90;;
19587;SDS011;9940;47.252;8.696;2023-02-11T04:46:41;14.32;;;5.50;;
19587;SDS011;9940;47.252;8.696;2023-02-11T04:49:06;11.73;;;5.38;;
19587;SDS011;9940;47.252;8.696;2023-02-11T04:51:38;12.07;;;5.20;;
19587;SDS011;9940;47.252;8.696;2023-02-11T04:54:04;14.00;;;5.60;;
19587;SDS011;9940;47.252;8.696;2023-02-11T04:56:29;17.05;;;5.63;;
19587;SDS011;9940;47.252;8.696;2023-02-11T04:58:55;13.88;;;6.18;;
19587;SDS011;9940;47.252;8.696;2023-02-11T05:01:21;13.50;;;5.63;;
19587;SDS011;9940;47.252;8.696;2023-02-11T05:03:46;20.02;;;6.43;;
19587;SDS011;9940;47.252;8.696;2023-02-11T05:06:14;16.75;;;6.18;;
19587;SDS011;9940;47.252;8.696;2023-02-11T05:08:41;16.27;;;5.72;;
19587;SDS011;9940;47.252;8.696;2023-02-11T05:11:09;13.50;;;6.07;;
19587;SDS011;9940;47.252;8.696;2023-02-11T05:13:41;21.15;;;6.43;;
19587;SDS011;9940;47.252;8.696;2023-02-11T05:16:06;12.35;;;5.78;;
19587;SDS011;9940;47.252;8.696;2023-02-11T05:18:32;12.77;;;5.75;;
19587;SDS011;9940;47.252;8.696;2023-02-11T05:21:04;14.75;;;5.15;;
19587;SDS011;9940;47.252;8.696;2023-02-11T05:23:30;14.27;;;6.15;;
19587;SDS011;9940;47.252;8.696;2023-02-11T05:25:56;13.20;;;5.25;;
19587;SDS011;9940;47.252;8.696;2023-02-11T05:28:24;16.30;;;5.80;;
19587;SDS011;9940;47.252;8.696;2023-02-11T05:30:49;15.77;;;5.55;;
19587;SDS011;9940;47.252;8.696;2023-02-11T05:33:15;14.43;;;6.18;;
19587;SDS011;9940;47.252;8.696;2023-02-11T05:35:41;13.50;;;5.32;;
19587;SDS011;9940;47.252;8.696;2023-02-11T05:38:07;12.30;;;5.22;;
19587;SDS011;9940;47.252;8.696;2023-02-11T05:40:32;13.57;;;4.88;;
19587;SDS011;9940;47.252;8.696;2023-02-11T05:42:58;11.07;;;5.00;;
19587;SDS011;9940;47.252;8.696;2023-02-11T05:45:26;15.07;;;5.32;;
19587;SDS011;9940;47.252;8.696;2023-02-11T05:47:52;14.70;;;4.80;;
19587;SDS011;9940;47.252;8.696;2023-02-11T05:50:20;10.80;;;4.57;;
19587;SDS011;9940;47.252;8.696;2023-02-11T05:52:46;15.00;;;4.90;;
19587;SDS011;9940;47.252;8.696;2023-02-11T05:55:14;11.95;;;4.60;;
19587;SDS011;9940;47.252;8.696;2023-02-11T05:57:40;12.27;;;4.82;;
19587;SDS011;9940;47.252;8.696;2023-02-11T06:00:08;17.42;;;5.40;;
19587;SDS011;9940;47.252;8.696;2023-02-11T06:02:35;14.82;;;5.25;;
19587;SDS011;9940;47.252;8.696;2023-02-11T06:05:01;14.75;;;5.18;;
19587;SDS011;9940;47.252;8.696;2023-02-11T06:07:29;14.00;;;5.72;;
19587;SDS011;9940;47.252;8.696;2023-02-11T06:09:55;15.02;;;5.03;;
19587;SDS011;9940;47.252;8.696;2023-02-11T06:12:21;13.25;;;5.28;;
19587;SDS011;9940;47.252;8.696;2023-02-11T06:14:47;12.23;;;5.55;;
19587;SDS011;9940;47.252;8.696;2023-02-11T06:17:13;14.05;;;5.90;;
19587;SDS011;9940;47.252;8.696;2023-02-11T06:19:42;15.98;;;6.07;;
19587;SDS011;9940;47.252;8.696;2023-02-11T06:22:10;17.83;;;6.55;;
19587;SDS011;9940;47.252;8.696;2023-02-11T06:24:36;14.45;;;6.53;;
19587;SDS011;9940;47.252;8.696;2023-02-11T06:27:05;17.38;;;7.10;;
19587;SDS011;9940;47.252;8.696;2023-02-11T06:29:31;16.05;;;7.03;;
19587;SDS011;9940;47.252;8.696;2023-02-11T06:32:00;20.85;;;7.90;;
19587;SDS011;9940;47.252;8.696;2023-02-11T06:34:26;17.23;;;7.75;;
19587;SDS011;9940;47.252;8.696;2023-02-11T06:36:52;19.42;;;7.63;;
19587;SDS011;9940;47.252;8.696;2023-02-11T06:39:18;19.00;;;6.72;;
19587;SDS011;9940;47.252;8.696;2023-02-11T06:41:46;21.13;;;7.55;;
19587;SDS011;9940;47.252;8.696;2023-02-11T06:44:12;19.75;;;8.10;;
19587;SDS011;9940;47.252;8.696;2023-02-11T06:46:38;21.83;;;7.93;;
19587;SDS011;9940;47.252;8.696;2023-02-11T06:49:04;22.17;;;7.90;;
19587;SDS011;9940;47.252;8.696;2023-02-11T06:51:30;24.23;;;9.02;;
19587;SDS011;9940;47.252;8.696;2023-02-11T06:53:57;21.35;;;8.70;;
19587;SDS011;9940;47.252;8.696;2023-02-11T06:56:23;21.83;;;8.73;;
19587;SDS011;9940;47.252;8.696;2023-02-11T06:58:52;19.23;;;8.20;;
19587;SDS011;9940;47.252;8.696;2023-02-11T07:01:19;25.00;;;8.90;;
19587;SDS011;9940;47.252;8.696;2023-02-11T07:03:48;25.92;;;10.52;;
19587;SDS011;9940;47.252;8.696;2023-02-11T07:06:17;23.60;;;10.30;;
19587;SDS011;9940;47.252;8.696;2023-02-11T07:08:46;25.55;;;9.07;;
19587;SDS011;9940;47.252;8.696;2023-02-11T07:13:43;26.63;;;9.43;;
19587;SDS011;9940;47.252;8.696;2023-02-11T07:16:11;72.15;;;15.52;;
19587;SDS011;9940;47.252;8.696;2023-02-11T07:18:37;74.20;;;17.13;;
19587;SDS011;9940;47.252;8.696;2023-02-11T07:21:04;88.97;;;18.67;;
19587;SDS011;9940;47.252;8.696;2023-02-11T07:23:31;67.78;;;17.10;;
19587;SDS011;9940;47.252;8.696;2023-02-11T07:26:00;74.78;;;18.10;;
19587;SDS011;9940;47.252;8.696;2023-02-11T07:28:26;56.35;;;15.88;;
19587;SDS011;9940;47.252;8.696;2023-02-11T07:30:55;39.65;;;11.90;;
19587;SDS011;9940;47.252;8.696;2023-02-11T07:33:21;31.10;;;10.45;;
19587;SDS011;9940;47.252;8.696;2023-02-11T07:35:47;24.08;;;9.10;;
19587;SDS011;9940;47.252;8.696;2023-02-11T07:38:13;20.15;;;8.30;;
19587;SDS011;9940;47.252;8.696;2023-02-11T07:40:39;25.00;;;7.88;;
19587;SDS011;9940;47.252;8.696;2023-02-11T07:43:08;19.58;;;7.40;;
19587;SDS011;9940;47.252;8.696;2023-02-11T07:45:37;15.50;;;6.75;;
19587;SDS011;9940;47.252;8.696;2023-02-11T07:48:05;12.88;;;6.40;;
19587;SDS011;9940;47.252;8.696;2023-02-11T07:50:34;13.52;;;6.13;;
19587;SDS011;9940;47.252;8.696;2023-02-11T07:53:00;17.05;;;6.78;;
19587;SDS011;9940;47.252;8.696;2023-02-11T07:55:27;18.55;;;7.07;;
19587;SDS011;9940;47.252;8.696;2023-02-11T07:57:53;18.42;;;6.63;;
19587;SDS011;9940;47.252;8.696;2023-02-11T08:00:19;18.02;;;6.68;;
19587;SDS011;9940;47.252;8.696;2023-02-11T08:02:45;18.75;;;7.88;;
19587;SDS011;9940;47.252;8.696;2023-02-11T08:05:11;15.55;;;7.38;;
19587;SDS011;9940;47.252;8.696;2023-02-11T08:07:37;20.17;;;7.45;;
19587;SDS011;9940;47.252;8.696;2023-02-11T08:10:03;21.48;;;7.93;;
19587;SDS011;9940;47.252;8.696;2023-02-11T08:12:29;20.25;;;7.55;;
19587;SDS011;9940;47.252;8.696;2023-02-11T08:14:55;22.25;;;7.53;;
19587;SDS011;9940;47.252;8.696;2023-02-11T08:17:21;21.98;;;8.25;;
19587;SDS011;9940;47.252;8.696;2023-02-11T08:19:48;21.98;;;8.38;;
19587;SDS011;9940;47.252;8.696;2023-02-11T08:22:14;19.90;;;8.38;;
19587;SDS011;9940;47.252;8.696;2023-02-11T08:24:40;22.23;;;8.80;;
19587;SDS011;9940;47.252;8.696;2023-02-11T08:27:10;23.52;;;8.88;;
19587;SDS011;9940;47.252;8.696;2023-02-11T08:29:36;25.83;;;8.45;;
19587;SDS011;9940;47.252;8.696;2023-02-11T08:32:05;21.60;;;8.80;;
19587;SDS011;9940;47.252;8.696;2023-02-11T08:34:33;26.42;;;8.32;;
19587;SDS011;9940;47.252;8.696;2023-02-11T08:37:01;23.65;;;8.63;;
19587;SDS011;9940;47.252;8.696;2023-02-11T08:39:32;24.45;;;9.32;;
19587;SDS011;9940;47.252;8.696;2023-02-11T08:41:58;20.90;;;8.85;;
19587;SDS011;9940;47.252;8.696;2023-02-11T08:44:24;25.30;;;9.27;;
19587;SDS011;9940;47.252;8.696;2023-02-11T08:46:50;24.05;;;8.40;;
19587;SDS011;9940;47.252;8.696;2023-02-11T08:49:16;25.83;;;9.10;;
19587;SDS011;9940;47.252;8.696;2023-02-11T08:51:43;18.73;;;8.43;;
19587;SDS011;9940;47.252;8.696;2023-02-11T08:54:11;21.30;;;7.63;;
19587;SDS011;9940;47.252;8.696;2023-02-11T08:56:38;14.95;;;6.85;;
19587;SDS011;9940;47.252;8.696;2023-02-11T08:59:04;18.58;;;7.00;;
19587;SDS011;9940;47.252;8.696;2023-02-11T09:01:31;16.05;;;6.93;;
19587;SDS011;9940;47.252;8.696;2023-02-11T09:04:00;18.02;;;7.35;;
19587;SDS011;9940;47.252;8.696;2023-02-11T09:06:26;14.95;;;6.85;;
19587;SDS011;9940;47.252;8.696;2023-02-11T09:08:54;16.60;;;7.75;;
19587;SDS011;9940;47.252;8.696;2023-02-11T09:11:21;15.77;;;6.95;;
19587;SDS011;9940;47.252;8.696;2023-02-11T09:13:47;16.83;;;6.63;;
19587;SDS011;9940;47.252;8.696;2023-02-11T09:16:19;14.10;;;5.78;;
19587;SDS011;9940;47.252;8.696;2023-02-11T09:18:45;15.07;;;6.70;;
19587;SDS011;9940;47.252;8.696;2023-02-11T09:21:12;15.82;;;6.32;;
19587;SDS011;9940;47.252;8.696;2023-02-11T09:23:39;16.27;;;6.47;;
19587;SDS011;9940;47.252;8.696;2023-02-11T09:26:08;13.68;;;5.97;;
19587;SDS011;9940;47.252;8.696;2023-02-11T09:28:37;14.02;;;6.65;;
19587;SDS011;9940;47.252;8.696;2023-02-11T09:31:04;16.05;;;6.50;;
19587;SDS011;9940;47.252;8.696;2023-02-11T09:33:30;18.17;;;6.88;;
19587;SDS011;9940;47.252;8.696;2023-02-11T09:35:59;14.88;;;6.65;;
19587;SDS011;9940;47.252;8.696;2023-02-11T09:38:25;14.70;;;6.65;;
19587;SDS011;9940;47.252;8.696;2023-02-11T09:40:54;15.73;;;6.65;;
19587;SDS011;9940;47.252;8.696;2023-02-11T09:43:26;16.85;;;6.93;;
19587;SDS011;9940;47.252;8.696;2023-02-11T09:45:54;12.82;;;6.50;;
19587;SDS011;9940;47.252;8.696;2023-02-11T09:48:21;11.38;;;5.78;;
19587;SDS011;9940;47.252;8.696;2023-02-11T09:50:55;15.43;;;5.78;;
19587;SDS011;9940;47.252;8.696;2023-02-11T09:53:23;15.73;;;6.35;;
19587;SDS011;9940;47.252;8.696;2023-02-11T09:55:55;11.43;;;5.95;;
19587;SDS011;9940;47.252;8.696;2023-02-11T10:14:20;12.13;;;5.35;;
19587;SDS011;9940;47.252;8.696;2023-02-11T10:25:16;11.00;;;4.90;;
19587;SDS011;9940;47.252;8.696;2023-02-11T10:27:42;11.55;;;5.00;;
19587;SDS011;9940;47.252;8.696;2023-02-11T10:30:15;9.10;;;4.50;;
19587;SDS011;9940;47.252;8.696;2023-02-11T10:32:55;13.02;;;5.45;;
19587;SDS011;9940;47.252;8.696;2023-02-11T10:35:26;9.93;;;5.10;;
19587;SDS011;9940;47.252;8.696;2023-02-11T10:37:52;15.73;;;6.20;;
19587;SDS011;9940;47.252;8.696;2023-02-11T10:40:20;16.23;;;6.80;;
19587;SDS011;9940;47.252;8.696;2023-02-11T10:42:50;15.40;;;6.35;;
19587;SDS011;9940;47.252;8.696;2023-02-11T10:45:31;17.30;;;6.53;;
19587;SDS011;9940;47.252;8.696;2023-02-11T10:47:57;10.93;;;6.25;;
19587;SDS011;9940;47.252;8.696;2023-02-11T10:50:28;13.30;;;6.50;;
19587;SDS011;9940;47.252;8.696;2023-02-11T10:53:37;12.75;;;6.50;;
19587;SDS011;9940;47.252;8.696;2023-02-11T10:55:48;14.90;;;6.00;;
19587;SDS011;9940;47.252;8.696;2023-02-11T10:58:20;11.82;;;5.72;;
19587;SDS011;9940;47.252;8.696;2023-02-11T11:00:50;12.65;;;6.22;;
19587;SDS011;9940;47.252;8.696;2023-02-11T11:03:18;11.80;;;6.05;;
19587;SDS011;9940;47.252;8.696;2023-02-11T11:05:48;12.32;;;6.47;;
19587;SDS011;9940;47.252;8.696;2023-02-11T11:08:18;15.27;;;6.95;;
19587;SDS011;9940;47.252;8.696;2023-02-11T11:10:48;14.43;;;6.45;;
19587;SDS011;9940;47.252;8.696;2023-02-11T11:13:28;16.60;;;6.60;;
19587;SDS011;9940;47.252;8.696;2023-02-11T11:18:33;15.30;;;6.47;;
19587;SDS011;9940;47.252;8.696;2023-02-11T11:20:59;14.80;;;7.43;;
19587;SDS011;9940;47.252;8.696;2023-02-11T11:23:27;12.23;;;6.88;;
19587;SDS011;9940;47.252;8.696;2023-02-11T11:25:59;13.18;;;6.25;;
19587;SDS011;9940;47.252;8.696;2023-02-11T11:28:28;13.40;;;7.60;;
19587;SDS011;9940;47.252;8.696;2023-02-11T11:30:56;15.82;;;8.18;;
19587;SDS011;9940;47.252;8.696;2023-02-11T11:33:27;13.82;;;7.57;;
19587;SDS011;9940;47.252;8.696;2023-02-11T11:36:05;12.48;;;7.50;;
19587;SDS011;9940;47.252;8.696;2023-02-11T11:38:35;14.60;;;8.75;;
19587;SDS011;9940;47.252;8.696;2023-02-11T11:46:35;10.95;;;8.40;;
19587;SDS011;9940;47.252;8.696;2023-02-11T11:51:33;13.27;;;10.27;;
19587;SDS011;9940;47.252;8.696;2023-02-11T11:54:02;13.98;;;10.40;;
19587;SDS011;9940;47.252;8.696;2023-02-11T11:56:31;16.05;;;10.82;;
19587;SDS011;9940;47.252;8.696;2023-02-11T11:59:05;11.88;;;9.15;;
19587;SDS011;9940;47.252;8.696;2023-02-11T12:15:33;9.50;;;7.35;;
19587;SDS011;9940;47.252;8.696;2023-02-11T12:55:49;8.75;;;6.50;;
19587;SDS011;9940;47.252;8.696;2023-02-11T12:58:17;9.57;;;6.95;;
19587;SDS011;9940;47.252;8.696;2023-02-11T13:00:46;8.02;;;5.63;;
19587;SDS011;9940;47.252;8.696;2023-02-11T13:03:24;9.02;;;6.65;;
19587;SDS011;9940;47.252;8.696;2023-02-11T13:06:26;7.55;;;5.93;;
19587;SDS011;9940;47.252;8.696;2023-02-11T13:08:57;10.57;;;6.90;;
19587;SDS011;9940;47.252;8.696;2023-02-11T13:11:31;13.57;;;8.02;;
19587;SDS011;9940;47.252;8.696;2023-02-11T13:16:44;7.60;;;5.32;;
19587;SDS011;9940;47.252;8.696;2023-02-11T13:35:29;7.90;;;5.90;;
19587;SDS011;9940;47.252;8.696;2023-02-11T13:38:05;9.57;;;6.32;;
19587;SDS011;9940;47.252;8.696;2023-02-11T13:43:27;7.65;;;5.22;;
19587;SDS011;9940;47.252;8.696;2023-02-11T13:45:57;10.45;;;5.63;;
19587;SDS011;9940;47.252;8.696;2023-02-11T13:48:31;9.30;;;5.85;;
19587;SDS011;9940;47.252;8.696;2023-02-11T13:50:58;9.70;;;5.95;;
19587;SDS011;9940;47.252;8.696;2023-02-11T13:53:27;8.10;;;5.28;;
19587;SDS011;9940;47.252;8.696;2023-02-11T13:56:05;10.30;;;5.20;;
19587;SDS011;9940;47.252;8.696;2023-02-11T13:58:33;10.75;;;5.53;;
19587;SDS011;9940;47.252;8.696;2023-02-11T14:01:04;9.57;;;5.03;;
19587;SDS011;9940;47.252;8.696;2023-02-11T14:03:31;11.50;;;6.05;;
19587;SDS011;9940;47.252;8.696;2023-02-11T14:06:18;10.20;;;5.18;;
19587;SDS011;9940;47.252;8.696;2023-02-11T14:11:48;10.43;;;4.78;;
19587;SDS011;9940;47.252;8.696;2023-02-11T14:14:17;9.55;;;4.45;;
19587;SDS011;9940;47.252;8.696;2023-02-11T14:19:34;6.53;;;4.07;;
19587;SDS011;9940;47.252;8.696;2023-02-11T14:22:01;7.25;;;4.30;;
19587;SDS011;9940;47.252;8.696;2023-02-11T14:27:00;7.75;;;4.72;;
19587;SDS011;9940;47.252;8.696;2023-02-11T14:29:40;7.10;;;4.28;;
19587;SDS011;9940;47.252;8.696;2023-02-11T14:42:23;9.30;;;4.80;;
19587;SDS011;9940;47.252;8.696;2023-02-11T14:44:53;8.50;;;5.05;;
19587;SDS011;9940;47.252;8.696;2023-02-11T14:47:42;11.60;;;5.07;;
19587;SDS011;9940;47.252;8.696;2023-02-11T14:50:17;10.65;;;5.03;;
19587;SDS011;9940;47.252;8.696;2023-02-11T14:52:44;9.07;;;4.70;;
19587;SDS011;9940;47.252;8.696;2023-02-11T14:55:15;7.78;;;4.55;;
19587;SDS011;9940;47.252;8.696;2023-02-11T14:57:43;10.32;;;5.72;;
19587;SDS011;9940;47.252;8.696;2023-02-11T15:00:15;9.93;;;4.90;;
19587;SDS011;9940;47.252;8.696;2023-02-11T15:02:44;8.35;;;5.00;;
19587;SDS011;9940;47.252;8.696;2023-02-11T15:05:26;9.13;;;4.72;;
19587;SDS011;9940;47.252;8.696;2023-02-11T15:07:57;10.30;;;4.97;;
19587;SDS011;9940;47.252;8.696;2023-02-11T15:10:26;7.80;;;4.32;;
19587;SDS011;9940;47.252;8.696;2023-02-11T15:12:53;9.15;;;4.90;;
19587;SDS011;9940;47.252;8.696;2023-02-11T15:15:22;7.93;;;4.75;;
19587;SDS011;9940;47.252;8.696;2023-02-11T15:17:48;8.50;;;4.97;;
19587;SDS011;9940;47.252;8.696;2023-02-11T15:20:18;9.40;;;4.63;;
19587;SDS011;9940;47.252;8.696;2023-02-11T15:22:45;10.32;;;5.40;;
19587;SDS011;9940;47.252;8.696;2023-02-11T15:25:13;8.55;;;4.60;;
19587;SDS011;9940;47.252;8.696;2023-02-11T15:32:48;10.32;;;4.68;;
19587;SDS011;9940;47.252;8.696;2023-02-11T15:35:17;7.63;;;4.97;;
19587;SDS011;9940;47.252;8.696;2023-02-11T15:37:43;8.63;;;4.72;;
19587;SDS011;9940;47.252;8.696;2023-02-11T15:40:17;10.38;;;5.15;;
19587;SDS011;9940;47.252;8.696;2023-02-11T15:45:22;15.77;;;4.60;;
19587;SDS011;9940;47.252;8.696;2023-02-11T15:47:53;8.27;;;4.13;;
19587;SDS011;9940;47.252;8.696;2023-02-11T15:50:21;8.77;;;4.80;;
19587;SDS011;9940;47.252;8.696;2023-02-11T15:52:50;9.10;;;4.65;;
19587;SDS011;9940;47.252;8.696;2023-02-11T15:55:17;9.55;;;4.72;;
19587;SDS011;9940;47.252;8.696;2023-02-11T15:57:53;8.35;;;4.53;;
19587;SDS011;9940;47.252;8.696;2023-02-11T16:00:21;7.93;;;4.50;;
19587;SDS011;9940;47.252;8.696;2023-02-11T16:02:48;9.18;;;4.22;;
19587;SDS011;9940;47.252;8.696;2023-02-11T16:07:50;7.20;;;4.13;;
19587;SDS011;9940;47.252;8.696;2023-02-11T16:17:55;8.05;;;3.75;;
19587;SDS011;9940;47.252;8.696;2023-02-11T16:20:23;6.60;;;3.70;;
19587;SDS011;9940;47.252;8.696;2023-02-11T16:22:49;9.10;;;4.40;;
19587;SDS011;9940;47.252;8.696;2023-02-11T16:25:16;6.65;;;3.92;;
19587;SDS011;9940;47.252;8.696;2023-02-11T16:27:46;9.45;;;4.45;;
19587;SDS011;9940;47.252;8.696;2023-02-11T16:30:55;9.35;;;4.10;;
19587;SDS011;9940;47.252;8.696;2023-02-11T16:33:02;8.85;;;4.13;;
19587;SDS011;9940;47.252;8.696;2023-02-11T16:35:29;10.05;;;4.18;;
19587;SDS011;9940;47.252;8.696;2023-02-11T16:37:55;8.10;;;4.25;;
19587;SDS011;9940;47.252;8.696;2023-02-11T16:40:24;7.78;;;4.05;;
19587;SDS011;9940;47.252;8.696;2023-02-11T16:42:50;10.10;;;4.43;;
19587;SDS011;9940;47.252;8.696;2023-02-11T16:45:17;8.48;;;4.18;;
19587;SDS011;9940;47.252;8.696;2023-02-11T16:47:43;10.25;;;4.78;;
19587;SDS011;9940;47.252;8.696;2023-02-11T16:50:11;9.23;;;4.70;;
19587;SDS011;9940;47.252;8.696;2023-02-11T16:52:46;8.82;;;4.43;;
19587;SDS011;9940;47.252;8.696;2023-02-11T16:55:12;8.15;;;4.18;;
19587;SDS011;9940;47.252;8.696;2023-02-11T16:57:46;8.13;;;4.18;;
19587;SDS011;9940;47.252;8.696;2023-02-11T17:00:14;10.27;;;4.45;;
19587;SDS011;9940;47.252;8.696;2023-02-11T17:02:42;9.57;;;4.97;;
19587;SDS011;9940;47.252;8.696;2023-02-11T17:05:16;9.48;;;4.85;;
19587;SDS011;9940;47.252;8.696;2023-02-11T17:10:27;12.77;;;5.38;;
19587;SDS011;9940;47.252;8.696;2023-02-11T17:12:54;9.35;;;4.40;;
19587;SDS011;9940;47.252;8.696;2023-02-11T17:15:23;10.00;;;5.00;;
19587;SDS011;9940;47.252;8.696;2023-02-11T17:17:49;15.18;;;5.22;;
19587;SDS011;9940;47.252;8.696;2023-02-11T17:20:19;12.73;;;5.50;;
19587;SDS011;9940;47.252;8.696;2023-02-11T17:22:45;12.02;;;4.90;;
19587;SDS011;9940;47.252;8.696;2023-02-11T17:25:11;12.45;;;5.20;;
19587;SDS011;9940;47.252;8.696;2023-02-11T17:27:38;13.43;;;5.70;;
19587;SDS011;9940;47.252;8.696;2023-02-11T17:30:04;13.13;;;5.78;;
19587;SDS011;9940;47.252;8.696;2023-02-11T17:32:31;11.05;;;5.43;;
19587;SDS011;9940;47.252;8.696;2023-02-11T17:34:59;13.25;;;5.80;;
19587;SDS011;9940;47.252;8.696;2023-02-11T17:37:25;12.65;;;6.07;;
19587;SDS011;9940;47.252;8.696;2023-02-11T17:39:54;12.30;;;5.80;;
19587;SDS011;9940;47.252;8.696;2023-02-11T17:42:20;13.45;;;6.47;;
19587;SDS011;9940;47.252;8.696;2023-02-11T17:44:48;12.52;;;5.97;;
19587;SDS011;9940;47.252;8.696;2023-02-11T17:47:14;10.85;;;5.75;;
19587;SDS011;9940;47.252;8.696;2023-02-11T17:49:40;10.27;;;5.57;;
19587;SDS011;9940;47.252;8.696;2023-02-11T17:52:11;13.65;;;6.72;;
19587;SDS011;9940;47.252;8.696;2023-02-11T17:54:37;13.82;;;6.88;;
19587;SDS011;9940;47.252;8.696;2023-02-11T17:57:03;13.15;;;6.32;;
19587;SDS011;9940;47.252;8.696;2023-02-11T17:59:30;11.65;;;6.15;;
19587;SDS011;9940;47.252;8.696;2023-02-11T18:01:59;15.65;;;6.55;;
19587;SDS011;9940;47.252;8.696;2023-02-11T18:04:26;13.50;;;6.53;;
19587;SDS011;9940;47.252;8.696;2023-02-11T18:06:52;16.67;;;7.15;;
19587;SDS011;9940;47.252;8.696;2023-02-11T18:09:18;14.75;;;6.90;;
19587;SDS011;9940;47.252;8.696;2023-02-11T18:11:44;15.10;;;6.40;;
19587;SDS011;9940;47.252;8.696;2023-02-11T18:14:11;14.90;;;6.32;;
19587;SDS011;9940;47.252;8.696;2023-02-11T18:16:37;12.48;;;6.38;;